Time;durP1;ratioP1;P1;durP2;ratioP2;P2;SDS_P1;SDS_P2;PMS_P1;PMS_P2;Temp;Humidity;BMP_temperature;BMP_pressure;BME280_temperature;BME280_humidity;BME280_pressure;Samples;Min_cycle;Max_cycle;Signal;HPM_P1;HPM_P2
2022/09/12 00:01:25;;;;;;;4.28;3.20;;;;;;;;;;5009512;28;20216;-59
2022/09/12 00:03:53;;;;;;;5.10;3.65;;;;;;;;;;5013874;28;20274;-59
2022/09/12 00:06:21;;;;;;;3.65;3.33;;;;;;;;;;5023233;28;20204;-59
2022/09/12 00:08:49;;;;;;;3.45;3.15;;;;;;;;;;5018063;28;20196;-59
2022/09/12 00:11:16;;;;;;;3.47;3.15;;;;;;;;;;5025301;28;20211;-59
2022/09/12 00:13:43;;;;;;;4.03;3.53;;;;;;;;;;5028071;28;20208;-59
2022/09/12 00:16:17;;;;;;;5.25;3.35;;;;;;;;;;5015403;28;20576;-58
2022/09/12 00:18:45;;;;;;;4.05;3.67;;;;;;;;;;5011551;28;20252;-59
2022/09/12 00:21:12;;;;;;;5.65;3.88;;;;;;;;;;5022192;28;20295;-59
2022/09/12 00:23:39;;;;;;;5.70;3.92;;;;;;;;;;5026547;28;20239;-58
2022/09/12 00:26:08;;;;;;;8.18;3.90;;;;;;;;;;5016294;28;20619;-59
2022/09/12 00:28:36;;;;;;;4.70;3.50;;;;;;;;;;5015032;28;20205;-59
2022/09/12 00:31:04;;;;;;;5.80;4.28;;;;;;;;;;5030461;28;20204;-59
2022/09/12 00:33:31;;;;;;;5.03;3.97;;;;;;;;;;5012087;28;20243;-58
2022/09/12 00:35:58;;;;;;;4.50;3.80;;;;;;;;;;5018273;28;20206;-58
2022/09/12 00:38:25;;;;;;;4.47;4.00;;;;;;;;;;5012820;28;20213;-59
2022/09/12 00:40:52;;;;;;;5.72;3.85;;;;;;;;;;5020213;28;20235;-57
2022/09/12 00:43:36;;;;;;;3.80;3.50;;;;;;;;;;5015783;28;20533;-58
2022/09/12 00:46:06;;;;;;;6.90;4.63;;;;;;;;;;5016089;28;20216;-59
2022/09/12 00:48:35;;;;;;;4.45;3.85;;;;;;;;;;5022882;28;20663;-59
2022/09/12 00:51:02;;;;;;;4.38;3.97;;;;;;;;;;5018451;28;20200;-58
2022/09/12 00:53:30;;;;;;;4.88;4.15;;;;;;;;;;5019191;28;20211;-59
2022/09/12 00:55:58;;;;;;;5.70;3.95;;;;;;;;;;5014380;28;20209;-59
2022/09/12 00:58:26;;;;;;;6.05;3.63;;;;;;;;;;5023592;28;20215;-58
2022/09/12 01:00:55;;;;;;;4.32;3.53;;;;;;;;;;5025691;28;20243;-58
2022/09/12 01:03:23;;;;;;;5.20;3.97;;;;;;;;;;5025241;28;20204;-59
2022/09/12 01:05:54;;;;;;;6.05;4.03;;;;;;;;;;5014877;28;20614;-59
2022/09/12 01:08:22;;;;;;;5.50;4.40;;;;;;;;;;5013055;28;20208;-59
2022/09/12 01:10:49;;;;;;;4.25;3.85;;;;;;;;;;5014720;28;20312;-58
2022/09/12 01:13:16;;;;;;;7.15;4.25;;;;;;;;;;5022186;28;20219;-59
2022/09/12 01:15:43;;;;;;;4.88;4.10;;;;;;;;;;5014538;28;20280;-59
2022/09/12 01:18:16;;;;;;;4.45;3.95;;;;;;;;;;5027606;28;20228;-59
2022/09/12 01:20:49;;;;;;;9.05;4.53;;;;;;;;;;5016434;28;20227;-59
2022/09/12 01:23:34;;;;;;;4.90;4.13;;;;;;;;;;5017436;28;20204;-59
2022/09/12 01:26:08;;;;;;;4.55;3.97;;;;;;;;;;5016558;28;20204;-59
2022/09/12 01:28:53;;;;;;;3.70;3.40;;;;;;;;;;5018950;28;20243;-59
2022/09/12 01:31:24;;;;;;;6.28;4.10;;;;;;;;;;5013096;28;20205;-59
2022/09/12 01:33:57;;;;;;;7.53;3.72;;;;;;;;;;5019896;28;20208;-59
2022/09/12 01:36:32;;;;;;;5.97;3.78;;;;;;;;;;5020567;28;20209;-59
2022/09/12 01:39:00;;;;;;;8.43;4.40;;;;;;;;;;5020739;28;20281;-59
2022/09/12 01:41:29;;;;;;;5.07;4.10;;;;;;;;;;5024193;28;20216;-59
2022/09/12 01:44:01;;;;;;;6.85;4.60;;;;;;;;;;5026012;28;20903;-59
2022/09/12 01:46:32;;;;;;;4.78;4.05;;;;;;;;;;5028369;28;20740;-59
2022/09/12 01:49:01;;;;;;;6.40;4.45;;;;;;;;;;5028665;28;20303;-58
2022/09/12 01:51:32;;;;;;;5.63;4.05;;;;;;;;;;5019844;28;20200;-59
2022/09/12 01:54:02;;;;;;;5.75;3.90;;;;;;;;;;5021769;28;20208;-58
2022/09/12 01:56:32;;;;;;;3.33;3.03;;;;;;;;;;5016722;28;20712;-62
2022/09/12 01:59:04;;;;;;;6.47;4.00;;;;;;;;;;5024435;28;20220;-59
2022/09/12 02:01:33;;;;;;;7.03;4.32;;;;;;;;;;5012701;28;20232;-58
2022/09/12 02:04:04;;;;;;;6.53;3.88;;;;;;;;;;5023107;28;20421;-59
2022/09/12 02:06:34;;;;;;;5.28;4.25;;;;;;;;;;5015971;28;20568;-59
2022/09/12 02:09:04;;;;;;;4.60;3.85;;;;;;;;;;5018314;28;20569;-59
2022/09/12 02:11:32;;;;;;;5.63;4.40;;;;;;;;;;5019514;28;20212;-59
2022/09/12 02:14:01;;;;;;;5.75;3.78;;;;;;;;;;5019888;28;20311;-58
2022/09/12 02:16:31;;;;;;;6.40;4.07;;;;;;;;;;5025798;28;20212;-59
2022/09/12 02:19:02;;;;;;;9.50;3.78;;;;;;;;;;5011205;28;20225;-58
2022/09/12 02:21:31;;;;;;;5.32;4.05;;;;;;;;;;5021675;28;20810;-63
2022/09/12 02:24:00;;;;;;;5.75;4.22;;;;;;;;;;5013490;28;20228;-59
2022/09/12 02:26:31;;;;;;;3.88;3.53;;;;;;;;;;5018697;28;20717;-60
2022/09/12 02:28:59;;;;;;;3.80;3.45;;;;;;;;;;5015900;28;20212;-59
2022/09/12 02:31:28;;;;;;;6.07;4.50;;;;;;;;;;5022276;28;20211;-59
2022/09/12 02:34:01;;;;;;;4.35;3.60;;;;;;;;;;5022754;28;20208;-59
2022/09/12 02:36:33;;;;;;;4.57;4.15;;;;;;;;;;5011898;28;20547;-59
2022/09/12 02:39:00;;;;;;;5.85;4.05;;;;;;;;;;5013738;28;20259;-59
2022/09/12 02:41:27;;;;;;;5.03;3.80;;;;;;;;;;5011459;28;20226;-59
2022/09/12 02:43:54;;;;;;;6.82;4.20;;;;;;;;;;5024962;28;20212;-59
2022/09/12 02:46:23;;;;;;;5.53;4.13;;;;;;;;;;5019785;28;20947;-59
2022/09/12 02:48:51;;;;;;;4.05;3.53;;;;;;;;;;5010550;28;20631;-59
2022/09/12 02:51:18;;;;;;;3.55;3.25;;;;;;;;;;5015269;28;21925;-59
2022/09/12 02:53:47;;;;;;;5.68;3.67;;;;;;;;;;5013171;28;20207;-60
2022/09/12 02:56:18;;;;;;;3.75;3.45;;;;;;;;;;5014993;28;20205;-59
2022/09/12 02:58:45;;;;;;;5.40;3.22;;;;;;;;;;5015262;28;20721;-59
2022/09/12 03:01:14;;;;;;;3.78;3.13;;;;;;;;;;5015148;28;20224;-59
2022/09/12 03:03:50;;;;;;;4.18;3.78;;;;;;;;;;5020041;28;20208;-59
2022/09/12 03:06:19;;;;;;;4.28;3.45;;;;;;;;;;5022604;28;20200;-61
2022/09/12 03:08:54;;;;;;;4.72;3.47;;;;;;;;;;5009894;28;20216;-58
2022/09/12 03:11:39;;;;;;;4.28;3.75;;;;;;;;;;5020014;28;20196;-58
2022/09/12 03:14:13;;;;;;;4.25;3.83;;;;;;;;;;5010318;28;20673;-58
2022/09/12 03:16:43;;;;;;;4.33;3.50;;;;;;;;;;5017260;28;20213;-58
2022/09/12 03:19:13;;;;;;;7.10;3.97;;;;;;;;;;5021037;28;20247;-59
2022/09/12 03:21:46;;;;;;;7.13;3.97;;;;;;;;;;5009602;28;20225;-59
2022/09/12 03:24:17;;;;;;;5.63;4.50;;;;;;;;;;5019608;28;20242;-58
2022/09/12 03:26:46;;;;;;;5.40;4.07;;;;;;;;;;5018487;28;20298;-58
2022/09/12 03:29:13;;;;;;;3.65;3.35;;;;;;;;;;5019750;28;20204;-59
2022/09/12 03:31:49;;;;;;;6.22;4.35;;;;;;;;;;5021440;28;20196;-58
2022/09/12 03:34:16;;;;;;;5.38;4.10;;;;;;;;;;5025323;28;20299;-58
2022/09/12 03:36:43;;;;;;;6.05;4.20;;;;;;;;;;5018388;28;20204;-59
2022/09/12 03:39:10;;;;;;;5.65;3.72;;;;;;;;;;5020295;28;20212;-58
2022/09/12 03:41:38;;;;;;;7.10;4.32;;;;;;;;;;5023592;28;20228;-58
2022/09/12 03:44:05;;;;;;;5.13;3.40;;;;;;;;;;5016255;28;20207;-58
2022/09/12 03:46:32;;;;;;;6.30;4.03;;;;;;;;;;5011877;28;20201;-59
2022/09/12 03:48:59;;;;;;;5.57;4.63;;;;;;;;;;5015882;28;20233;-59
2022/09/12 03:51:27;;;;;;;4.78;4.25;;;;;;;;;;5012143;28;20212;-58
2022/09/12 03:53:54;;;;;;;6.30;4.00;;;;;;;;;;5011775;28;20204;-58
2022/09/12 03:56:21;;;;;;;4.32;3.67;;;;;;;;;;5016499;28;20207;-58
2022/09/12 03:58:50;;;;;;;6.67;4.30;;;;;;;;;;5020959;28;20279;-58
2022/09/12 04:01:17;;;;;;;4.77;4.37;;;;;;;;;;5015828;28;20225;-58
2022/09/12 04:03:45;;;;;;;4.97;4.10;;;;;;;;;;5010861;28;20212;-58
2022/09/12 04:06:19;;;;;;;6.40;4.67;;;;;;;;;;5023431;28;20208;-58
2022/09/12 04:08:49;;;;;;;7.85;3.90;;;;;;;;;;5024537;28;20281;-58
2022/09/12 04:11:16;;;;;;;5.07;3.90;;;;;;;;;;5023929;28;20201;-58
2022/09/12 04:13:45;;;;;;;6.50;4.07;;;;;;;;;;5011697;28;20216;-59
2022/09/12 04:16:14;;;;;;;3.97;3.53;;;;;;;;;;5010494;28;20197;-58
2022/09/12 04:18:41;;;;;;;4.97;4.03;;;;;;;;;;5020990;28;20229;-59
2022/09/12 04:21:09;;;;;;;7.07;4.23;;;;;;;;;;5019820;28;20252;-59
2022/09/12 04:23:36;;;;;;;4.37;3.67;;;;;;;;;;5023811;28;20236;-59
2022/09/12 04:26:06;;;;;;;4.67;4.03;;;;;;;;;;5009712;28;20697;-58
2022/09/12 04:28:33;;;;;;;8.40;4.70;;;;;;;;;;5010147;28;20647;-60
2022/09/12 04:31:02;;;;;;;6.53;4.70;;;;;;;;;;5007973;28;20791;-58
2022/09/12 04:33:31;;;;;;;5.23;4.27;;;;;;;;;;5011790;28;20229;-58
2022/09/12 04:36:03;;;;;;;6.73;4.47;;;;;;;;;;5014288;28;20209;-58
2022/09/12 04:38:30;;;;;;;5.90;4.20;;;;;;;;;;5016256;28;20208;-58
2022/09/12 04:40:57;;;;;;;3.45;3.15;;;;;;;;;;5015601;28;20228;-59
2022/09/12 04:43:45;;;;;;;4.60;3.97;;;;;;;;;;5010995;28;20205;-59
2022/09/12 04:46:14;;;;;;;4.70;3.87;;;;;;;;;;5020312;28;20579;-58
2022/09/12 04:48:42;;;;;;;4.53;4.13;;;;;;;;;;5020821;28;20292;-58
2022/09/12 04:51:13;;;;;;;4.93;4.07;;;;;;;;;;5014241;28;20212;-58
2022/09/12 04:53:41;;;;;;;5.60;4.00;;;;;;;;;;5021173;28;20232;-58
2022/09/12 04:56:09;;;;;;;4.90;3.80;;;;;;;;;;5025073;28;20220;-58
2022/09/12 04:58:37;;;;;;;3.97;3.63;;;;;;;;;;5013521;28;20208;-62
2022/09/12 05:01:05;;;;;;;4.10;3.43;;;;;;;;;;5019546;28;20335;-61
2022/09/12 05:03:32;;;;;;;6.00;4.27;;;;;;;;;;5014417;28;20256;-62
2022/09/12 05:06:02;;;;;;;3.90;3.60;;;;;;;;;;5016731;28;20209;-60
2022/09/12 05:08:29;;;;;;;6.30;4.30;;;;;;;;;;5016131;28;20240;-60
2022/09/12 05:10:57;;;;;;;5.43;3.87;;;;;;;;;;5022655;28;20236;-60
2022/09/12 05:13:26;;;;;;;4.35;3.70;;;;;;;;;;5011515;28;20593;-60
2022/09/12 05:15:57;;;;;;;6.93;4.30;;;;;;;;;;5011548;28;20680;-60
2022/09/12 05:18:25;;;;;;;7.13;4.32;;;;;;;;;;5015236;28;20227;-60
2022/09/12 05:20:52;;;;;;;5.83;3.43;;;;;;;;;;5018895;28;20228;-61
2022/09/12 05:23:20;;;;;;;4.37;3.60;;;;;;;;;;5016383;28;20211;-61
2022/09/12 05:25:51;;;;;;;4.35;3.60;;;;;;;;;;5017314;28;20683;-61
2022/09/12 05:28:18;;;;;;;5.47;3.53;;;;;;;;;;5021092;28;20210;-60
2022/09/12 05:30:45;;;;;;;6.10;4.18;;;;;;;;;;5012820;28;20208;-63
2022/09/12 05:33:13;;;;;;;5.78;3.88;;;;;;;;;;5010933;28;20267;-60
2022/09/12 05:35:40;;;;;;;4.13;3.60;;;;;;;;;;5010652;28;20212;-60
2022/09/12 05:38:07;;;;;;;7.97;4.60;;;;;;;;;;5016027;28;20852;-60
2022/09/12 05:40:36;;;;;;;4.10;3.70;;;;;;;;;;5015506;28;20229;-60
2022/09/12 05:43:03;;;;;;;3.70;3.33;;;;;;;;;;5009759;28;20675;-59
2022/09/12 05:45:31;;;;;;;4.43;4.03;;;;;;;;;;5018198;28;20586;-60
2022/09/12 05:47:58;;;;;;;4.30;3.58;;;;;;;;;;5029189;28;20294;-59
2022/09/12 05:50:25;;;;;;;8.35;4.57;;;;;;;;;;5029726;28;20578;-60
2022/09/12 05:52:53;;;;;;;4.35;3.92;;;;;;;;;;5027971;28;20212;-59
2022/09/12 05:55:21;;;;;;;5.07;4.53;;;;;;;;;;5029428;28;20208;-60
2022/09/12 05:57:50;;;;;;;4.43;4.03;;;;;;;;;;5029353;28;20226;-60
2022/09/12 06:00:18;;;;;;;6.93;5.13;;;;;;;;;;5014588;28;20220;-59
2022/09/12 06:02:45;;;;;;;5.53;4.57;;;;;;;;;;5012209;28;20378;-60
2022/09/12 06:05:12;;;;;;;7.55;4.55;;;;;;;;;;5018200;28;20216;-60
2022/09/12 06:07:39;;;;;;;5.63;4.35;;;;;;;;;;5009199;28;20217;-65
2022/09/12 06:10:06;;;;;;;4.60;4.18;;;;;;;;;;5009345;28;20213;-60
2022/09/12 06:12:33;;;;;;;6.38;4.57;;;;;;;;;;5013461;28;20197;-62
2022/09/12 06:15:02;;;;;;;4.78;4.03;;;;;;;;;;5029203;28;20613;-58
2022/09/12 06:17:29;;;;;;;5.68;4.43;;;;;;;;;;5024370;28;20306;-59
2022/09/12 06:19:56;;;;;;;6.28;4.55;;;;;;;;;;5026590;28;20208;-58
2022/09/12 06:22:24;;;;;;;6.97;5.00;;;;;;;;;;5010627;28;20228;-59
2022/09/12 06:24:51;;;;;;;5.07;4.43;;;;;;;;;;5015375;28;20240;-58
2022/09/12 06:27:19;;;;;;;5.25;4.75;;;;;;;;;;5023446;28;20212;-59
2022/09/12 06:29:46;;;;;;;5.38;4.15;;;;;;;;;;5023277;28;20204;-59
2022/09/12 06:32:15;;;;;;;5.18;4.38;;;;;;;;;;5012645;28;20198;-58
2022/09/12 06:34:42;;;;;;;4.88;4.18;;;;;;;;;;5010061;28;20307;-58
2022/09/12 06:37:09;;;;;;;5.18;4.10;;;;;;;;;;5020360;28;20213;-58
2022/09/12 06:39:37;;;;;;;5.78;4.82;;;;;;;;;;5009544;28;20215;-58
2022/09/12 06:42:04;;;;;;;4.60;3.95;;;;;;;;;;5012364;28;20244;-58
2022/09/12 06:44:31;;;;;;;7.32;4.20;;;;;;;;;;5008634;28;20213;-58
2022/09/12 06:46:58;;;;;;;4.32;3.85;;;;;;;;;;5009135;28;20236;-58
2022/09/12 06:49:26;;;;;;;6.40;4.20;;;;;;;;;;5009476;28;20235;-59
2022/09/12 06:51:53;;;;;;;4.30;3.78;;;;;;;;;;5010448;28;20201;-58
2022/09/12 06:54:22;;;;;;;4.70;3.88;;;;;;;;;;5009329;28;20356;-58
2022/09/12 06:56:49;;;;;;;5.55;4.35;;;;;;;;;;5023576;28;20216;-58
2022/09/12 06:59:16;;;;;;;4.65;4.20;;;;;;;;;;5023274;28;20216;-58
2022/09/12 07:01:43;;;;;;;4.05;3.63;;;;;;;;;;5021969;28;20228;-58
2022/09/12 07:04:10;;;;;;;5.90;4.45;;;;;;;;;;5028724;28;20216;-58
2022/09/12 07:06:39;;;;;;;6.72;4.57;;;;;;;;;;5016312;28;20205;-58
2022/09/12 07:09:08;;;;;;;5.15;4.22;;;;;;;;;;5015720;28;20239;-58
2022/09/12 07:11:36;;;;;;;5.10;3.78;;;;;;;;;;5028550;28;20319;-58
2022/09/12 07:14:04;;;;;;;4.07;3.78;;;;;;;;;;5021735;28;20233;-58
2022/09/12 07:16:32;;;;;;;6.45;4.28;;;;;;;;;;5008789;28;20213;-58
2022/09/12 07:19:00;;;;;;;6.25;3.88;;;;;;;;;;5024972;28;20236;-58
2022/09/12 07:21:27;;;;;;;5.53;4.22;;;;;;;;;;5027458;28;20235;-58
2022/09/12 07:23:56;;;;;;;4.78;4.22;;;;;;;;;;5020397;28;20239;-59
2022/09/12 07:26:24;;;;;;;9.52;3.75;;;;;;;;;;5027911;28;20835;-62
2022/09/12 07:28:52;;;;;;;4.60;3.90;;;;;;;;;;5008848;28;20235;-59
2022/09/12 07:31:20;;;;;;;4.43;3.67;;;;;;;;;;5008813;28;20209;-59
2022/09/12 07:33:47;;;;;;;4.22;3.88;;;;;;;;;;5006469;28;20213;-59
2022/09/12 07:36:16;;;;;;;4.80;4.32;;;;;;;;;;5024710;28;20295;-61
2022/09/12 07:38:43;;;;;;;4.78;4.28;;;;;;;;;;5025932;28;20206;-59
2022/09/12 07:41:12;;;;;;;3.75;3.45;;;;;;;;;;5016630;28;20624;-59
2022/09/12 07:43:40;;;;;;;5.50;3.83;;;;;;;;;;5011850;28;20578;-62
2022/09/12 07:46:07;;;;;;;4.40;3.97;;;;;;;;;;5018118;28;20259;-62
2022/09/12 07:48:35;;;;;;;4.60;4.18;;;;;;;;;;5018468;28;20238;-60
2022/09/12 07:51:02;;;;;;;4.70;4.20;;;;;;;;;;5020395;28;20287;-60
2022/09/12 07:53:31;;;;;;;5.43;4.18;;;;;;;;;;5024218;28;20286;-60
2022/09/12 07:55:58;;;;;;;4.13;3.78;;;;;;;;;;5020197;28;20208;-60
2022/09/12 07:58:27;;;;;;;4.03;3.63;;;;;;;;;;5014664;28;20219;-60
2022/09/12 08:00:54;;;;;;;4.97;3.88;;;;;;;;;;5008912;28;20275;-61
2022/09/12 08:03:21;;;;;;;4.80;4.03;;;;;;;;;;5004347;28;20204;-61
2022/09/12 08:05:48;;;;;;;5.47;4.18;;;;;;;;;;5017600;28;20308;-61
2022/09/12 08:08:15;;;;;;;6.15;4.20;;;;;;;;;;5007917;28;20667;-61
2022/09/12 08:10:42;;;;;;;9.82;4.03;;;;;;;;;;5007439;28;20208;-61
2022/09/12 08:13:09;;;;;;;6.93;4.50;;;;;;;;;;5008196;28;20216;-61
2022/09/12 08:15:38;;;;;;;4.30;3.83;;;;;;;;;;5018007;28;20205;-61
2022/09/12 08:18:05;;;;;;;7.43;4.95;;;;;;;;;;5007730;28;20248;-61
2022/09/12 08:20:32;;;;;;;5.78;4.15;;;;;;;;;;5006622;28;20231;-61
2022/09/12 08:22:59;;;;;;;4.78;3.95;;;;;;;;;;5008285;28;20232;-61
2022/09/12 08:25:27;;;;;;;4.47;3.38;;;;;;;;;;5011269;28;20244;-61
2022/09/12 08:27:54;;;;;;;6.30;4.13;;;;;;;;;;5011587;28;20248;-61
2022/09/12 08:30:21;;;;;;;4.35;3.95;;;;;;;;;;5011563;28;20219;-61
2022/09/12 08:32:49;;;;;;;4.97;3.97;;;;;;;;;;5012125;28;20212;-61
2022/09/12 08:35:16;;;;;;;5.05;3.80;;;;;;;;;;5014098;28;20283;-61
2022/09/12 08:37:43;;;;;;;4.20;3.50;;;;;;;;;;5011263;28;20212;-61
2022/09/12 08:40:15;;;;;;;4.80;3.92;;;;;;;;;;5011620;28;20212;-61
2022/09/12 08:42:47;;;;;;;4.55;4.13;;;;;;;;;;5011276;28;20255;-61
2022/09/12 08:45:18;;;;;;;4.63;3.78;;;;;;;;;;5011260;28;20295;-61
2022/09/12 08:47:46;;;;;;;4.05;3.78;;;;;;;;;;5012458;28;20217;-61
2022/09/12 08:50:16;;;;;;;5.65;4.78;;;;;;;;;;5018315;28;20218;-61
2022/09/12 08:52:47;;;;;;;4.28;3.88;;;;;;;;;;5026800;28;20201;-61
2022/09/12 08:55:23;;;;;;;4.30;4.00;;;;;;;;;;5011237;28;20205;-62
2022/09/12 08:57:51;;;;;;;3.85;3.47;;;;;;;;;;5011217;28;20244;-62
2022/09/12 09:00:19;;;;;;;3.92;3.63;;;;;;;;;;5011226;28;20363;-61
2022/09/12 09:02:57;;;;;;;4.07;3.70;;;;;;;;;;5011657;28;20320;-62
2022/09/12 09:05:31;;;;;;;4.38;3.95;;;;;;;;;;5011021;28;20219;-61
2022/09/12 09:08:25;;;;;;;3.95;3.65;;;;;;;;;;5010188;28;20205;-62
2022/09/12 09:10:56;;;;;;;3.53;3.33;;;;;;;;;;4977425;28;20653;-65
2022/09/12 09:16:16;;;;;;;4.03;3.67;;;;;;;;;;5010720;28;20567;-63
2022/09/12 09:18:44;;;;;;;3.75;3.45;;;;;;;;;;5009959;28;20734;-64
2022/09/12 09:21:16;;;;;;;3.25;3.05;;;;;;;;;;5020187;28;20294;-64
2022/09/12 09:23:45;;;;;;;4.07;3.65;;;;;;;;;;5009562;28;20263;-64
2022/09/12 09:26:14;;;;;;;3.92;3.60;;;;;;;;;;5016096;28;20203;-63
2022/09/12 09:28:43;;;;;;;3.33;3.08;;;;;;;;;;5015762;28;20297;-63
2022/09/12 09:31:14;;;;;;;3.38;3.08;;;;;;;;;;5010544;28;20209;-63
2022/09/12 09:33:42;;;;;;;3.40;3.10;;;;;;;;;;5010108;28;20201;-63
2022/09/12 09:36:17;;;;;;;3.83;3.38;;;;;;;;;;5009112;28;20929;-60
2022/09/12 09:38:48;;;;;;;3.40;3.10;;;;;;;;;;5010090;28;20216;-61
2022/09/12 09:41:21;;;;;;;2.80;2.70;;;;;;;;;;5025441;28;20200;-62
2022/09/12 09:43:48;;;;;;;3.13;2.92;;;;;;;;;;5013098;28;20742;-63
2022/09/12 09:46:15;;;;;;;3.22;3.03;;;;;;;;;;5017824;28;20589;-62
2022/09/12 09:48:44;;;;;;;3.92;3.63;;;;;;;;;;5009675;28;20266;-62
2022/09/12 09:51:12;;;;;;;3.15;3.00;;;;;;;;;;5009595;28;20209;-62
2022/09/12 09:53:42;;;;;;;3.35;3.05;;;;;;;;;;5008447;28;20212;-62
2022/09/12 09:56:12;;;;;;;2.75;2.65;;;;;;;;;;5029057;28;20789;-62
2022/09/12 09:58:40;;;;;;;2.47;2.38;;;;;;;;;;5028625;28;20731;-62
2022/09/12 10:01:13;;;;;;;2.80;2.60;;;;;;;;;;5011833;28;20510;-62
2022/09/12 10:03:40;;;;;;;2.72;2.63;;;;;;;;;;5008908;28;20611;-62
2022/09/12 10:06:09;;;;;;;3.22;2.95;;;;;;;;;;5008998;28;20667;-62
2022/09/12 10:08:39;;;;;;;2.88;2.67;;;;;;;;;;5008949;28;20209;-62
2022/09/12 10:11:07;;;;;;;3.28;2.90;;;;;;;;;;5009007;28;20201;-62
2022/09/12 10:13:39;;;;;;;2.78;2.67;;;;;;;;;;5020541;28;20422;-63
2022/09/12 10:16:08;;;;;;;2.55;2.45;;;;;;;;;;5009121;28;20675;-62
2022/09/12 10:18:36;;;;;;;3.33;3.03;;;;;;;;;;5026459;28;20331;-62
2022/09/12 10:21:13;;;;;;;2.70;2.60;;;;;;;;;;5028681;28;20204;-63
2022/09/12 10:23:42;;;;;;;2.60;2.50;;;;;;;;;;5009905;28;20724;-62
2022/09/12 10:26:10;;;;;;;3.08;2.80;;;;;;;;;;5008850;28;20224;-62
2022/09/12 10:28:39;;;;;;;3.13;2.92;;;;;;;;;;5025009;28;20231;-62
2022/09/12 10:31:06;;;;;;;2.60;2.50;;;;;;;;;;5008822;28;20244;-61
2022/09/12 10:33:37;;;;;;;2.05;2.03;;;;;;;;;;5024426;28;20204;-61
2022/09/12 10:36:04;;;;;;;2.55;2.45;;;;;;;;;;5008420;28;20242;-62
2022/09/12 10:38:33;;;;;;;2.65;2.45;;;;;;;;;;5008752;28;20746;-62
2022/09/12 10:41:03;;;;;;;2.90;2.70;;;;;;;;;;5012019;28;20204;-63
2022/09/12 10:43:34;;;;;;;2.60;2.40;;;;;;;;;;5018652;28;20228;-62
2022/09/12 10:46:20;;;;;;;2.42;2.33;;;;;;;;;;5012524;28;20204;-63
2022/09/12 10:48:48;;;;;;;2.30;2.20;;;;;;;;;;5026557;28;20202;-62
2022/09/12 10:51:16;;;;;;;3.03;2.83;;;;;;;;;;5016125;28;20324;-63
2022/09/12 10:53:44;;;;;;;3.10;2.90;;;;;;;;;;5016751;28;20200;-62
2022/09/12 10:56:14;;;;;;;2.30;2.20;;;;;;;;;;5025103;28;20223;-62
2022/09/12 10:58:48;;;;;;;2.22;2.13;;;;;;;;;;5009181;28;20219;-61
2022/09/12 11:01:20;;;;;;;2.50;2.40;;;;;;;;;;5008705;28;20208;-62
2022/09/12 11:03:54;;;;;;;2.22;2.13;;;;;;;;;;5008992;28;20343;-62
2022/09/12 11:06:24;;;;;;;2.63;2.42;;;;;;;;;;5008912;28;20222;-62
2022/09/12 11:08:54;;;;;;;2.13;2.03;;;;;;;;;;5009650;28;20208;-63
2022/09/12 11:11:32;;;;;;;2.30;2.20;;;;;;;;;;5019495;28;20219;-64
2022/09/12 11:14:06;;;;;;;2.58;2.38;;;;;;;;;;5021069;28;20209;-63
2022/09/12 11:16:36;;;;;;;2.13;2.05;;;;;;;;;;5011746;28;20296;-63
2022/09/12 11:19:10;;;;;;;2.85;2.75;;;;;;;;;;5027840;28;20229;-63
2022/09/12 11:21:45;;;;;;;2.28;2.20;;;;;;;;;;5022073;28;20205;-64
2022/09/12 11:24:22;;;;;;;2.28;2.17;;;;;;;;;;5027208;28;20239;-63
2022/09/12 11:26:58;;;;;;;2.65;2.50;;;;;;;;;;5019330;28;20575;-62
2022/09/12 11:29:32;;;;;;;2.30;2.20;;;;;;;;;;5007972;28;20217;-63
2022/09/12 11:32:09;;;;;;;2.53;2.33;;;;;;;;;;5008106;28;20286;-63
2022/09/12 11:34:41;;;;;;;4.07;2.22;;;;;;;;;;5007762;28;20208;-64
2022/09/12 11:37:21;;;;;;;2.40;2.30;;;;;;;;;;5015280;28;20758;-63
2022/09/12 11:39:51;;;;;;;2.10;2.03;;;;;;;;;;5008421;28;20209;-63
2022/09/12 11:42:22;;;;;;;2.33;2.22;;;;;;;;;;5008307;28;20208;-63
2022/09/12 11:44:53;;;;;;;3.22;2.72;;;;;;;;;;5015172;28;20739;-62
2022/09/12 11:47:20;;;;;;;2.50;2.40;;;;;;;;;;5023889;28;20212;-62
2022/09/12 11:49:50;;;;;;;3.00;2.65;;;;;;;;;;5007496;28;20205;-62
2022/09/12 11:52:19;;;;;;;2.40;2.28;;;;;;;;;;5013690;28;20219;-62
2022/09/12 11:54:49;;;;;;;2.55;2.45;;;;;;;;;;5022084;28;20213;-65
2022/09/12 11:57:18;;;;;;;2.45;2.35;;;;;;;;;;5007999;28;20400;-63
2022/09/12 11:59:49;;;;;;;2.55;2.45;;;;;;;;;;5008010;28;20221;-63
2022/09/12 12:02:21;;;;;;;2.85;2.60;;;;;;;;;;5007871;28;20213;-63
2022/09/12 12:04:56;;;;;;;2.45;2.35;;;;;;;;;;5007907;28;20216;-65
2022/09/12 12:07:23;;;;;;;2.40;2.30;;;;;;;;;;5008330;28;20228;-64
2022/09/12 12:09:52;;;;;;;2.80;2.70;;;;;;;;;;5007920;28;20215;-63
2022/09/12 12:12:21;;;;;;;9.93;2.67;;;;;;;;;;5007967;28;20296;-63
2022/09/12 12:14:50;;;;;;;2.33;2.22;;;;;;;;;;5007642;28;20369;-63
2022/09/12 12:17:18;;;;;;;2.00;1.90;;;;;;;;;;5015552;28;20223;-63
2022/09/12 12:19:46;;;;;;;2.28;2.17;;;;;;;;;;5009428;28;20216;-63
2022/09/12 12:22:16;;;;;;;2.17;2.08;;;;;;;;;;5011627;28;20322;-62
2022/09/12 12:24:58;;;;;;;2.20;2.10;;;;;;;;;;5027050;28;20603;-62
2022/09/12 12:27:45;;;;;;;2.00;1.90;;;;;;;;;;5027467;28;20286;-62
2022/09/12 12:30:27;;;;;;;2.08;1.98;;;;;;;;;;5027340;28;20208;-62
2022/09/12 12:32:59;;;;;;;1.83;1.83;;;;;;;;;;5008502;28;20208;-62
2022/09/12 12:35:39;;;;;;;2.03;1.92;;;;;;;;;;5009170;28;20212;-63
2022/09/12 12:38:26;;;;;;;1.73;1.73;;;;;;;;;;5013077;28;20208;-63
2022/09/12 12:40:53;;;;;;;1.73;1.73;;;;;;;;;;5009433;28;20204;-63
2022/09/12 12:43:31;;;;;;;2.17;2.08;;;;;;;;;;5018862;28;20268;-63
2022/09/12 12:46:13;;;;;;;1.38;1.38;;;;;;;;;;5007410;28;20243;-63
2022/09/12 12:48:58;;;;;;;2.17;2.08;;;;;;;;;;5009446;28;20221;-63
2022/09/12 12:51:46;;;;;;;2.00;1.90;;;;;;;;;;5007647;28;20247;-63
2022/09/12 12:54:50;;;;;;;1.80;1.70;;;;;;;;;;5002806;28;20217;-63
2022/09/12 12:57:26;;;;;;;1.70;1.60;;;;;;;;;;5005088;28;20217;-63
2022/09/12 12:59:54;;;;;;;1.55;1.55;;;;;;;;;;5007220;28;20509;-63
2022/09/12 13:02:24;;;;;;;1.67;1.67;;;;;;;;;;5006452;28;20228;-63
2022/09/12 13:04:51;;;;;;;1.60;1.60;;;;;;;;;;5006740;28;20202;-63
2022/09/12 13:07:24;;;;;;;1.65;1.65;;;;;;;;;;5006080;28;20248;-62
2022/09/12 13:09:53;;;;;;;1.83;1.73;;;;;;;;;;5018322;28;20201;-63
2022/09/12 13:12:22;;;;;;;1.70;1.70;;;;;;;;;;5016361;28;20210;-62
2022/09/12 13:14:54;;;;;;;2.08;1.98;;;;;;;;;;5023019;28;20204;-63
2022/09/12 13:17:30;;;;;;;4.38;2.60;;;;;;;;;;5017723;28;20699;-62
2022/09/12 13:20:05;;;;;;;2.05;1.95;;;;;;;;;;5018117;28;20239;-63
2022/09/12 13:22:40;;;;;;;1.85;1.75;;;;;;;;;;5015113;28;20204;-63
2022/09/12 13:25:19;;;;;;;1.40;1.40;;;;;;;;;;5025944;28;20322;-63
2022/09/12 13:27:56;;;;;;;1.38;1.38;;;;;;;;;;5013034;28;20668;-61
2022/09/12 13:30:23;;;;;;;1.38;1.38;;;;;;;;;;5018005;28;20204;-59
2022/09/12 13:32:51;;;;;;;1.80;1.73;;;;;;;;;;5012177;28;20215;-60
2022/09/12 13:35:23;;;;;;;1.77;1.65;;;;;;;;;;5020743;28;20334;-60
2022/09/12 13:37:56;;;;;;;1.30;1.30;;;;;;;;;;5015957;28;20307;-61
2022/09/12 13:40:29;;;;;;;1.30;1.30;;;;;;;;;;5022228;28;20765;-60
2022/09/12 13:43:08;;;;;;;1.20;1.20;;;;;;;;;;5013772;28;20602;-59
2022/09/12 13:45:37;;;;;;;1.63;1.63;;;;;;;;;;5009376;28;20221;-60
2022/09/12 13:48:05;;;;;;;1.40;1.30;;;;;;;;;;5012714;28;20213;-60
2022/09/12 13:50:34;;;;;;;1.17;1.17;;;;;;;;;;5027769;28;20210;-60
2022/09/12 13:53:02;;;;;;;1.67;1.58;;;;;;;;;;5020270;28;20250;-60
2022/09/12 13:55:32;;;;;;;1.40;1.40;;;;;;;;;;5019473;28;20205;-60
2022/09/12 13:58:00;;;;;;;1.70;1.70;;;;;;;;;;5015307;28;20212;-61
2022/09/12 14:00:29;;;;;;;1.30;1.30;;;;;;;;;;5025021;28;20203;-61
2022/09/12 14:05:38;;;;;;;1.55;1.55;;;;;;;;;;5008337;28;20690;-60
2022/09/12 14:08:07;;;;;;;1.50;1.50;;;;;;;;;;5009588;28;20228;-60
2022/09/12 14:10:38;;;;;;;1.65;1.55;;;;;;;;;;5028374;28;20205;-59
2022/09/12 14:13:10;;;;;;;1.80;1.70;;;;;;;;;;5021263;28;20327;-61
2022/09/12 14:15:37;;;;;;;1.50;1.40;;;;;;;;;;5020254;28;20314;-62
2022/09/12 14:18:07;;;;;;;1.67;1.58;;;;;;;;;;5016214;28;20235;-61
2022/09/12 14:20:37;;;;;;;3.13;1.38;;;;;;;;;;5028540;28;20240;-62
2022/09/12 14:23:07;;;;;;;1.50;1.40;;;;;;;;;;5020706;28;20307;-61
2022/09/12 14:25:40;;;;;;;1.50;1.50;;;;;;;;;;5013506;28;20213;-62
2022/09/12 14:28:09;;;;;;;1.60;1.50;;;;;;;;;;5009660;28;20687;-62
2022/09/12 14:30:37;;;;;;;1.30;1.30;;;;;;;;;;5009116;28;20217;-61
2022/09/12 14:33:06;;;;;;;1.73;1.63;;;;;;;;;;5023499;28;20208;-62
2022/09/12 14:35:33;;;;;;;1.75;1.67;;;;;;;;;;5011883;28;20214;-62
2022/09/12 14:38:06;;;;;;;1.92;1.90;;;;;;;;;;5012439;28;20219;-62
2022/09/12 14:40:41;;;;;;;1.60;1.50;;;;;;;;;;5008827;28;20221;-61
2022/09/12 14:43:17;;;;;;;1.50;1.48;;;;;;;;;;5020041;28;20232;-62
2022/09/12 14:45:44;;;;;;;1.55;1.50;;;;;;;;;;5016860;28;20208;-62
2022/09/12 14:48:16;;;;;;;1.42;1.40;;;;;;;;;;5027633;28;20223;-62
2022/09/12 14:50:44;;;;;;;1.30;1.30;;;;;;;;;;5010198;28;20259;-61
2022/09/12 14:53:21;;;;;;;1.40;1.40;;;;;;;;;;5017307;28;20690;-62
2022/09/12 14:55:52;;;;;;;1.23;1.13;;;;;;;;;;5027872;28;20631;-61
2022/09/12 14:58:25;;;;;;;1.52;1.40;;;;;;;;;;5008568;28;20241;-62
2022/09/12 15:00:53;;;;;;;1.10;1.10;;;;;;;;;;5010230;28;20241;-62
2022/09/12 15:03:24;;;;;;;1.58;1.50;;;;;;;;;;5010217;28;20220;-63
2022/09/12 15:05:51;;;;;;;1.23;1.23;;;;;;;;;;5028077;28;20232;-62